sensor_id;sensor_type;location;lat;lon;timestamp;pressure;altitude;pressure_sealevel;temperature;humidity
34297;BME280;20564;42.902;25.336;2023-03-23T00:01:30;97187.13;;;9.46;100.00
34297;BME280;20564;42.902;25.336;2023-03-23T00:04:06;97186.44;;;9.44;100.00
34297;BME280;20564;42.902;25.336;2023-03-23T00:06:37;97192.78;;;9.41;100.00
34297;BME280;20564;42.902;25.336;2023-03-23T00:09:03;97188.50;;;9.40;100.00
34297;BME280;20564;42.902;25.336;2023-03-23T00:11:48;97186.00;;;9.38;100.00
34297;BME280;20564;42.902;25.336;2023-03-23T00:14:40;97190.13;;;9.31;100.00
34297;BME280;20564;42.902;25.336;2023-03-23T00:17:25;97192.31;;;9.26;100.00
34297;BME280;20564;42.902;25.336;2023-03-23T00:22:58;97198.09;;;9.20;100.00
34297;BME280;20564;42.902;25.336;2023-03-23T00:25:40;97191.19;;;9.19;100.00
34297;BME280;20564;42.902;25.336;2023-03-23T00:28:10;97187.34;;;9.23;100.00
34297;BME280;20564;42.902;25.336;2023-03-23T00:30:42;97190.09;;;9.22;100.00
34297;BME280;20564;42.902;25.336;2023-03-23T00:33:28;97176.00;;;9.23;100.00
34297;BME280;20564;42.902;25.336;2023-03-23T00:36:02;97188.31;;;9.22;100.00
34297;BME280;20564;42.902;25.336;2023-03-23T00:38:39;97192.28;;;9.16;100.00
34297;BME280;20564;42.902;25.336;2023-03-23T00:41:17;97188.81;;;9.16;100.00
34297;BME280;20564;42.902;25.336;2023-03-23T00:43:56;97191.44;;;9.16;100.00
34297;BME280;20564;42.902;25.336;2023-03-23T00:46:24;97182.28;;;9.10;100.00
34297;BME280;20564;42.902;25.336;2023-03-23T00:48:57;97186.19;;;9.16;100.00
34297;BME280;20564;42.902;25.336;2023-03-23T00:51:24;97182.47;;;9.18;100.00
34297;BME280;20564;42.902;25.336;2023-03-23T00:53:59;97177.66;;;9.24;100.00
34297;BME280;20564;42.902;25.336;2023-03-23T00:56:25;97179.31;;;9.25;100.00
34297;BME280;20564;42.902;25.336;2023-03-23T00:59:07;97177.41;;;9.27;100.00
34297;BME280;20564;42.902;25.336;2023-03-23T01:01:34;97178.22;;;9.27;100.00
34297;BME280;20564;42.902;25.336;2023-03-23T01:04:14;97174.06;;;9.25;100.00
34297;BME280;20564;42.902;25.336;2023-03-23T01:07:28;97178.75;;;9.21;100.00
34297;BME280;20564;42.902;25.336;2023-03-23T01:10:30;97182.06;;;9.23;100.00
34297;BME280;20564;42.902;25.336;2023-03-23T01:13:21;97186.94;;;9.28;100.00
34297;BME280;20564;42.902;25.336;2023-03-23T01:15:48;97185.69;;;9.22;100.00
34297;BME280;20564;42.902;25.336;2023-03-23T01:18:38;97179.53;;;9.12;100.00
34297;BME280;20564;42.902;25.336;2023-03-23T01:21:16;97186.94;;;8.97;100.00
34297;BME280;20564;42.902;25.336;2023-03-23T01:23:44;97184.38;;;8.86;100.00
34297;BME280;20564;42.902;25.336;2023-03-23T01:26:15;97190.06;;;8.70;100.00
34297;BME280;20564;42.902;25.336;2023-03-23T01:28:46;97185.59;;;8.61;100.00
34297;BME280;20564;42.902;25.336;2023-03-23T01:31:19;97196.34;;;8.58;100.00
34297;BME280;20564;42.902;25.336;2023-03-23T01:33:58;97196.84;;;8.52;100.00
34297;BME280;20564;42.902;25.336;2023-03-23T01:36:48;97192.75;;;8.59;100.00
34297;BME280;20564;42.902;25.336;2023-03-23T01:39:14;97190.91;;;8.50;100.00
34297;BME280;20564;42.902;25.336;2023-03-23T01:41:48;97189.38;;;8.47;100.00
34297;BME280;20564;42.902;25.336;2023-03-23T01:47:05;97187.09;;;8.54;100.00
34297;BME280;20564;42.902;25.336;2023-03-23T01:49:43;97184.47;;;8.54;100.00
34297;BME280;20564;42.902;25.336;2023-03-23T01:52:26;97189.19;;;8.60;100.00
34297;BME280;20564;42.902;25.336;2023-03-23T01:54:59;97194.69;;;8.57;100.00
34297;BME280;20564;42.902;25.336;2023-03-23T01:57:42;97197.50;;;8.65;100.00
34297;BME280;20564;42.902;25.336;2023-03-23T02:00:27;97199.44;;;8.63;100.00
34297;BME280;20564;42.902;25.336;2023-03-23T02:05:53;97202.44;;;8.58;100.00
34297;BME280;20564;42.902;25.336;2023-03-23T02:11:20;97204.69;;;8.63;100.00
34297;BME280;20564;42.902;25.336;2023-03-23T02:17:26;97203.91;;;8.72;100.00
34297;BME280;20564;42.902;25.336;2023-03-23T02:26:09;97200.25;;;8.84;100.00
34297;BME280;20564;42.902;25.336;2023-03-23T02:35:20;97209.41;;;8.69;100.00
34297;BME280;20564;42.902;25.336;2023-03-23T02:38:21;97218.00;;;8.71;100.00
34297;BME280;20564;42.902;25.336;2023-03-23T02:40:59;97210.81;;;8.73;100.00
34297;BME280;20564;42.902;25.336;2023-03-23T02:43:30;97216.59;;;8.67;100.00
34297;BME280;20564;42.902;25.336;2023-03-23T02:46:10;97214.66;;;8.69;100.00
34297;BME280;20564;42.902;25.336;2023-03-23T02:48:41;97215.22;;;8.73;100.00
34297;BME280;20564;42.902;25.336;2023-03-23T02:54:15;97215.72;;;8.66;100.00
34297;BME280;20564;42.902;25.336;2023-03-23T02:56:43;97218.00;;;8.71;100.00
34297;BME280;20564;42.902;25.336;2023-03-23T02:59:22;97222.59;;;8.79;100.00
34297;BME280;20564;42.902;25.336;2023-03-23T03:02:01;97228.69;;;8.79;100.00
34297;BME280;20564;42.902;25.336;2023-03-23T03:04:40;97225.88;;;8.71;100.00
34297;BME280;20564;42.902;25.336;2023-03-23T03:18:50;97227.66;;;8.71;100.00
34297;BME280;20564;42.902;25.336;2023-03-23T03:21:19;97239.09;;;8.69;100.00
34297;BME280;20564;42.902;25.336;2023-03-23T03:24:02;97242.84;;;8.67;100.00
34297;BME280;20564;42.902;25.336;2023-03-23T03:26:34;97239.75;;;8.62;100.00
34297;BME280;20564;42.902;25.336;2023-03-23T03:29:01;97241.09;;;8.56;100.00
34297;BME280;20564;42.902;25.336;2023-03-23T03:35:01;97243.34;;;8.61;100.00
34297;BME280;20564;42.902;25.336;2023-03-23T03:37:37;97249.06;;;8.55;100.00
34297;BME280;20564;42.902;25.336;2023-03-23T03:40:10;97245.22;;;8.59;100.00
34297;BME280;20564;42.902;25.336;2023-03-23T03:42:53;97256.06;;;8.65;100.00
34297;BME280;20564;42.902;25.336;2023-03-23T03:45:34;97244.75;;;8.65;100.00
34297;BME280;20564;42.902;25.336;2023-03-23T03:48:03;97247.13;;;8.68;100.00
34297;BME280;20564;42.902;25.336;2023-03-23T03:50:30;97251.41;;;8.69;100.00
34297;BME280;20564;42.902;25.336;2023-03-23T03:53:29;97245.31;;;8.68;100.00
34297;BME280;20564;42.902;25.336;2023-03-23T03:56:14;97250.56;;;8.68;100.00
34297;BME280;20564;42.902;25.336;2023-03-23T03:59:09;97256.41;;;8.72;100.00
34297;BME280;20564;42.902;25.336;2023-03-23T04:04:59;97251.59;;;8.77;100.00
34297;BME280;20564;42.902;25.336;2023-03-23T04:07:32;97260.03;;;8.81;100.00
34297;BME280;20564;42.902;25.336;2023-03-23T04:10:30;97257.31;;;8.82;100.00
34297;BME280;20564;42.902;25.336;2023-03-23T04:13:13;97258.28;;;8.81;100.00
34297;BME280;20564;42.902;25.336;2023-03-23T04:15:45;97259.53;;;8.87;100.00
34297;BME280;20564;42.902;25.336;2023-03-23T04:18:13;97268.03;;;8.79;100.00
34297;BME280;20564;42.902;25.336;2023-03-23T04:20:44;97263.53;;;8.70;100.00
34297;BME280;20564;42.902;25.336;2023-03-23T04:23:17;97274.91;;;8.71;100.00
34297;BME280;20564;42.902;25.336;2023-03-23T04:25:46;97278.28;;;8.82;100.00
34297;BME280;20564;42.902;25.336;2023-03-23T04:28:20;97268.78;;;8.70;100.00
34297;BME280;20564;42.902;25.336;2023-03-23T04:30:50;97276.41;;;8.73;100.00
34297;BME280;20564;42.902;25.336;2023-03-23T04:33:23;97276.81;;;8.68;100.00
34297;BME280;20564;42.902;25.336;2023-03-23T04:36:02;97278.16;;;8.63;100.00
34297;BME280;20564;42.902;25.336;2023-03-23T04:38:33;97280.78;;;8.63;100.00
34297;BME280;20564;42.902;25.336;2023-03-23T04:41:00;97276.94;;;8.67;100.00
34297;BME280;20564;42.902;25.336;2023-03-23T04:43:28;97279.56;;;8.67;100.00
34297;BME280;20564;42.902;25.336;2023-03-23T04:45:55;97279.81;;;8.64;100.00
34297;BME280;20564;42.902;25.336;2023-03-23T04:48:26;97269.91;;;8.67;100.00
34297;BME280;20564;42.902;25.336;2023-03-23T04:50:53;97273.94;;;8.72;100.00
34297;BME280;20564;42.902;25.336;2023-03-23T04:53:21;97274.19;;;8.68;100.00
34297;BME280;20564;42.902;25.336;2023-03-23T04:55:48;97284.69;;;8.68;100.00
34297;BME280;20564;42.902;25.336;2023-03-23T04:58:15;97279.69;;;8.65;100.00
34297;BME280;20564;42.902;25.336;2023-03-23T05:00:42;97282.53;;;8.62;100.00
34297;BME280;20564;42.902;25.336;2023-03-23T05:03:16;97286.97;;;8.62;100.00
34297;BME280;20564;42.902;25.336;2023-03-23T05:05:43;97290.16;;;8.65;100.00
34297;BME280;20564;42.902;25.336;2023-03-23T05:08:23;97295.63;;;8.74;100.00
34297;BME280;20564;42.902;25.336;2023-03-23T05:10:57;97285.50;;;8.69;100.00
34297;BME280;20564;42.902;25.336;2023-03-23T05:13:26;97289.28;;;8.76;100.00
34297;BME280;20564;42.902;25.336;2023-03-23T05:15:52;97290.13;;;8.77;100.00
34297;BME280;20564;42.902;25.336;2023-03-23T05:18:18;97290.13;;;8.77;100.00
34297;BME280;20564;42.902;25.336;2023-03-23T05:20:46;97293.13;;;8.72;100.00
34297;BME280;20564;42.902;25.336;2023-03-23T05:23:13;97296.25;;;8.66;100.00
34297;BME280;20564;42.902;25.336;2023-03-23T05:25:40;97306.28;;;8.61;100.00
34297;BME280;20564;42.902;25.336;2023-03-23T05:28:07;97305.38;;;8.51;100.00
34297;BME280;20564;42.902;25.336;2023-03-23T05:30:34;97306.59;;;8.47;100.00
34297;BME280;20564;42.902;25.336;2023-03-23T05:33:24;97315.06;;;8.39;100.00
34297;BME280;20564;42.902;25.336;2023-03-23T05:35:54;97310.19;;;8.34;100.00
34297;BME280;20564;42.902;25.336;2023-03-23T05:38:22;97309.81;;;8.28;100.00
34297;BME280;20564;42.902;25.336;2023-03-23T05:40:48;97315.91;;;8.28;100.00
34297;BME280;20564;42.902;25.336;2023-03-23T05:43:15;97313.88;;;8.20;100.00
34297;BME280;20564;42.902;25.336;2023-03-23T05:45:42;97322.44;;;8.22;100.00
34297;BME280;20564;42.902;25.336;2023-03-23T05:48:15;97326.75;;;8.24;100.00
34297;BME280;20564;42.902;25.336;2023-03-23T05:50:43;97324.72;;;8.27;100.00
34297;BME280;20564;42.902;25.336;2023-03-23T05:53:10;97332.47;;;8.29;100.00
34297;BME280;20564;42.902;25.336;2023-03-23T05:55:41;97331.88;;;8.25;100.00
34297;BME280;20564;42.902;25.336;2023-03-23T05:58:09;97332.34;;;8.19;100.00
34297;BME280;20564;42.902;25.336;2023-03-23T06:00:36;97333.22;;;8.19;100.00
34297;BME280;20564;42.902;25.336;2023-03-23T06:03:02;97337.88;;;8.16;100.00
34297;BME280;20564;42.902;25.336;2023-03-23T06:05:28;97345.47;;;8.19;100.00
34297;BME280;20564;42.902;25.336;2023-03-23T06:07:54;97333.22;;;8.19;100.00
34297;BME280;20564;42.902;25.336;2023-03-23T06:10:23;97348.66;;;8.22;100.00
34297;BME280;20564;42.902;25.336;2023-03-23T06:12:52;97342.59;;;8.22;100.00
34297;BME280;20564;42.902;25.336;2023-03-23T06:15:23;97347.59;;;8.25;100.00
34297;BME280;20564;42.902;25.336;2023-03-23T06:18:02;97354.06;;;8.21;100.00
34297;BME280;20564;42.902;25.336;2023-03-23T06:20:35;97353.09;;;8.22;100.00
34297;BME280;20564;42.902;25.336;2023-03-23T06:23:01;97359.06;;;8.24;100.00
34297;BME280;20564;42.902;25.336;2023-03-23T06:25:35;97347.38;;;8.28;100.00
34297;BME280;20564;42.902;25.336;2023-03-23T06:28:01;97358.31;;;8.33;100.00
34297;BME280;20564;42.902;25.336;2023-03-23T06:30:27;97357.16;;;8.37;100.00
34297;BME280;20564;42.902;25.336;2023-03-23T06:32:54;97353.06;;;8.44;100.00
34297;BME280;20564;42.902;25.336;2023-03-23T06:35:21;97355.94;;;8.53;100.00
34297;BME280;20564;42.902;25.336;2023-03-23T06:37:47;97359.59;;;8.61;100.00
34297;BME280;20564;42.902;25.336;2023-03-23T06:40:12;97368.78;;;8.67;100.00
34297;BME280;20564;42.902;25.336;2023-03-23T06:42:39;97374.84;;;8.67;100.00
34297;BME280;20564;42.902;25.336;2023-03-23T06:45:05;97378.75;;;8.73;100.00
34297;BME280;20564;42.902;25.336;2023-03-23T06:47:32;97375.50;;;8.81;100.00
34297;BME280;20564;42.902;25.336;2023-03-23T06:49:59;97371.19;;;8.91;100.00
34297;BME280;20564;42.902;25.336;2023-03-23T06:52:25;97369.00;;;9.07;100.00
34297;BME280;20564;42.902;25.336;2023-03-23T06:54:52;97380.00;;;9.22;100.00
34297;BME280;20564;42.902;25.336;2023-03-23T07:00:03;97372.00;;;9.45;100.00
34297;BME280;20564;42.902;25.336;2023-03-23T07:02:34;97371.88;;;9.46;100.00
34297;BME280;20564;42.902;25.336;2023-03-23T07:05:04;97369.75;;;9.61;100.00
34297;BME280;20564;42.902;25.336;2023-03-23T07:07:43;97373.00;;;9.74;100.00
34297;BME280;20564;42.902;25.336;2023-03-23T07:10:10;97384.91;;;9.78;100.00
34297;BME280;20564;42.902;25.336;2023-03-23T07:12:53;97371.25;;;9.84;100.00
34297;BME280;20564;42.902;25.336;2023-03-23T07:15:19;97386.25;;;9.94;100.00
34297;BME280;20564;42.902;25.336;2023-03-23T07:17:49;97378.53;;;10.02;100.00
34297;BME280;20564;42.902;25.336;2023-03-23T07:20:18;97381.34;;;10.10;100.00
34297;BME280;20564;42.902;25.336;2023-03-23T07:22:54;97381.69;;;10.26;100.00
34297;BME280;20564;42.902;25.336;2023-03-23T07:25:21;97383.13;;;10.40;100.00
34297;BME280;20564;42.902;25.336;2023-03-23T07:27:47;97381.22;;;10.52;100.00
34297;BME280;20564;42.902;25.336;2023-03-23T07:30:16;97382.31;;;10.49;100.00
34297;BME280;20564;42.902;25.336;2023-03-23T07:32:42;97388.53;;;10.38;100.00
34297;BME280;20564;42.902;25.336;2023-03-23T07:35:11;97387.69;;;10.38;100.00
34297;BME280;20564;42.902;25.336;2023-03-23T07:37:37;97396.72;;;10.45;100.00
34297;BME280;20564;42.902;25.336;2023-03-23T07:40:07;97394.94;;;10.46;100.00
34297;BME280;20564;42.902;25.336;2023-03-23T07:42:45;97397.13;;;10.41;100.00
34297;BME280;20564;42.902;25.336;2023-03-23T07:45:14;97401.69;;;10.38;100.00
34297;BME280;20564;42.902;25.336;2023-03-23T07:47:40;97404.47;;;10.47;100.00
34297;BME280;20564;42.902;25.336;2023-03-23T07:50:08;97406.44;;;10.54;100.00
34297;BME280;20564;42.902;25.336;2023-03-23T07:52:37;97403.41;;;10.59;100.00
34297;BME280;20564;42.902;25.336;2023-03-23T07:55:04;97399.09;;;10.58;100.00
34297;BME280;20564;42.902;25.336;2023-03-23T07:57:34;97406.75;;;10.61;100.00
34297;BME280;20564;42.902;25.336;2023-03-23T08:00:00;97408.69;;;10.69;100.00
34297;BME280;20564;42.902;25.336;2023-03-23T08:02:29;97409.53;;;10.69;100.00
34297;BME280;20564;42.902;25.336;2023-03-23T08:04:58;97411.19;;;10.70;100.00
34297;BME280;20564;42.902;25.336;2023-03-23T08:07:27;97411.19;;;10.70;100.00
34297;BME280;20564;42.902;25.336;2023-03-23T08:09:56;97414.25;;;10.75;100.00
34297;BME280;20564;42.902;25.336;2023-03-23T08:12:28;97414.38;;;10.64;100.00
34297;BME280;20564;42.902;25.336;2023-03-23T08:14:55;97419.06;;;10.70;100.00
34297;BME280;20564;42.902;25.336;2023-03-23T08:17:33;97411.63;;;10.75;100.00
34297;BME280;20564;42.902;25.336;2023-03-23T08:20:06;97413.16;;;10.88;100.00
34297;BME280;20564;42.902;25.336;2023-03-23T08:22:42;97415.66;;;10.99;100.00
34297;BME280;20564;42.902;25.336;2023-03-23T08:25:13;97413.03;;;10.99;100.00
34297;BME280;20564;42.902;25.336;2023-03-23T08:27:40;97412.63;;;10.94;100.00
34297;BME280;20564;42.902;25.336;2023-03-23T08:30:14;97423.41;;;10.91;100.00
34297;BME280;20564;42.902;25.336;2023-03-23T08:32:43;97419.81;;;10.92;100.00
34297;BME280;20564;42.902;25.336;2023-03-23T08:35:11;97422.97;;;10.85;100.00
34297;BME280;20564;42.902;25.336;2023-03-23T08:37:37;97422.84;;;10.68;100.00
34297;BME280;20564;42.902;25.336;2023-03-23T08:40:08;97425.00;;;10.62;100.00
34297;BME280;20564;42.902;25.336;2023-03-23T08:42:43;97420.59;;;10.63;100.00
34297;BME280;20564;42.902;25.336;2023-03-23T08:45:17;97429.47;;;10.62;100.00
34297;BME280;20564;42.902;25.336;2023-03-23T08:47:46;97421.81;;;10.59;100.00
34297;BME280;20564;42.902;25.336;2023-03-23T08:50:22;97431.53;;;10.58;100.00
34297;BME280;20564;42.902;25.336;2023-03-23T08:52:49;97424.44;;;10.59;100.00
34297;BME280;20564;42.902;25.336;2023-03-23T08:55:16;97424.19;;;10.62;100.00
34297;BME280;20564;42.902;25.336;2023-03-23T08:57:43;97425.88;;;10.73;100.00
34297;BME280;20564;42.902;25.336;2023-03-23T09:00:18;97425.63;;;10.76;100.00
34297;BME280;20564;42.902;25.336;2023-03-23T09:02:52;97427.56;;;10.83;100.00
34297;BME280;20564;42.902;25.336;2023-03-23T09:05:23;97414.28;;;10.95;100.00
34297;BME280;20564;42.902;25.336;2023-03-23T09:07:58;97423.16;;;11.03;100.00
34297;BME280;20564;42.902;25.336;2023-03-23T09:10:31;97418.44;;;11.07;100.00
34297;BME280;20564;42.902;25.336;2023-03-23T09:13:09;97413.31;;;11.15;100.00
34297;BME280;20564;42.902;25.336;2023-03-23T09:15:35;97421.78;;;11.09;100.00
34297;BME280;20564;42.902;25.336;2023-03-23T09:18:02;97418.16;;;11.10;100.00
34297;BME280;20564;42.902;25.336;2023-03-23T09:20:32;97424.53;;;11.17;100.00
34297;BME280;20564;42.902;25.336;2023-03-23T09:22:58;97412.34;;;11.16;100.00
34297;BME280;20564;42.902;25.336;2023-03-23T09:25:26;97416.22;;;11.22;100.00
34297;BME280;20564;42.902;25.336;2023-03-23T09:28:02;97413.47;;;11.23;100.00
34297;BME280;20564;42.902;25.336;2023-03-23T09:30:48;97414.56;;;11.21;100.00
34297;BME280;20564;42.902;25.336;2023-03-23T09:33:17;97419.56;;;11.14;100.00
34297;BME280;20564;42.902;25.336;2023-03-23T09:35:47;97421.22;;;11.15;100.00
34297;BME280;20564;42.902;25.336;2023-03-23T09:38:13;97420.38;;;11.24;100.00
34297;BME280;20564;42.902;25.336;2023-03-23T09:49:30;97406.38;;;12.19;100.00
34297;BME280;20564;42.902;25.336;2023-03-23T09:52:14;97407.34;;;12.46;98.94
34297;BME280;20564;42.902;25.336;2023-03-23T09:54:43;97400.00;;;12.67;95.59
34297;BME280;20564;42.902;25.336;2023-03-23T09:57:34;97387.97;;;12.83;87.66
34297;BME280;20564;42.902;25.336;2023-03-23T10:00:12;97390.53;;;12.74;91.36
34297;BME280;20564;42.902;25.336;2023-03-23T10:03:10;97396.34;;;12.78;93.68
34297;BME280;20564;42.902;25.336;2023-03-23T10:08:12;97389.16;;;12.70;94.13
34297;BME280;20564;42.902;25.336;2023-03-23T10:16:15;97396.31;;;12.33;93.79
34297;BME280;20564;42.902;25.336;2023-03-23T10:18:49;97393.25;;;12.27;95.42
34297;BME280;20564;42.902;25.336;2023-03-23T10:21:22;97401.28;;;12.36;95.04
34297;BME280;20564;42.902;25.336;2023-03-23T10:24:03;97393.69;;;12.50;94.46
34297;BME280;20564;42.902;25.336;2023-03-23T10:29:14;97393.25;;;12.83;92.69
34297;BME280;20564;42.902;25.336;2023-03-23T10:31:59;97380.28;;;13.07;91.73
34297;BME280;20564;42.902;25.336;2023-03-23T10:34:51;97382.16;;;13.15;88.97
34297;BME280;20564;42.902;25.336;2023-03-23T10:37:20;97378.53;;;13.16;88.79
34297;BME280;20564;42.902;25.336;2023-03-23T10:39:53;97377.78;;;13.23;89.34
34297;BME280;20564;42.902;25.336;2023-03-23T10:42:32;97377.38;;;13.28;87.39
34297;BME280;20564;42.902;25.336;2023-03-23T10:45:11;97379.03;;;13.29;85.08
34297;BME280;20564;42.902;25.336;2023-03-23T10:47:53;97376.06;;;13.32;86.50
34297;BME280;20564;42.902;25.336;2023-03-23T10:50:30;97379.75;;;13.21;87.40
34297;BME280;20564;42.902;25.336;2023-03-23T10:53:00;97379.69;;;13.13;86.99
34297;BME280;20564;42.902;25.336;2023-03-23T10:55:38;97381.63;;;13.11;87.69
34297;BME280;20564;42.902;25.336;2023-03-23T11:01:18;97369.19;;;13.03;87.69
34297;BME280;20564;42.902;25.336;2023-03-23T11:03:49;97367.22;;;13.06;87.36
34297;BME280;20564;42.902;25.336;2023-03-23T11:06:26;97362.78;;;13.06;87.79
34297;BME280;20564;42.902;25.336;2023-03-23T11:08:56;97359.38;;;13.14;87.25
34297;BME280;20564;42.902;25.336;2023-03-23T11:11:31;97357.38;;;13.16;86.78
34297;BME280;20564;42.902;25.336;2023-03-23T11:16:56;97351.47;;;13.32;86.48
34297;BME280;20564;42.902;25.336;2023-03-23T11:19:28;97344.47;;;13.31;84.62
34297;BME280;20564;42.902;25.336;2023-03-23T11:24:46;97338.44;;;13.20;83.01
34297;BME280;20564;42.902;25.336;2023-03-23T11:27:14;97348.41;;;13.26;80.50
34297;BME280;20564;42.902;25.336;2023-03-23T11:29:56;97338.53;;;13.29;80.54
34297;BME280;20564;42.902;25.336;2023-03-23T11:32:28;97343.13;;;13.26;82.42
34297;BME280;20564;42.902;25.336;2023-03-23T11:35:15;97332.25;;;13.30;82.47
34297;BME280;20564;42.902;25.336;2023-03-23T11:37:42;97332.94;;;13.32;81.82
34297;BME280;20564;42.902;25.336;2023-03-23T11:45:37;97316.31;;;13.21;82.64
34297;BME280;20564;42.902;25.336;2023-03-23T11:48:43;97315.31;;;13.22;80.90
34297;BME280;20564;42.902;25.336;2023-03-23T11:54:40;97318.63;;;12.98;82.32
34297;BME280;20564;42.902;25.336;2023-03-23T11:57:15;97319.75;;;12.96;82.59
34297;BME280;20564;42.902;25.336;2023-03-23T11:59:42;97311.34;;;13.00;83.31
34297;BME280;20564;42.902;25.336;2023-03-23T12:05:30;97313.75;;;12.94;80.59
34297;BME280;20564;42.902;25.336;2023-03-23T12:10:41;97308.41;;;12.86;83.74
34297;BME280;20564;42.902;25.336;2023-03-23T12:18:51;97305.53;;;12.61;83.88
34297;BME280;20564;42.902;25.336;2023-03-23T12:24:21;97306.75;;;12.85;82.46
34297;BME280;20564;42.902;25.336;2023-03-23T12:30:04;97313.84;;;13.02;82.89
34297;BME280;20564;42.902;25.336;2023-03-23T12:38:52;97314.91;;;13.09;77.45
34297;BME280;20564;42.902;25.336;2023-03-23T12:44:46;97317.38;;;13.11;79.13
34297;BME280;20564;42.902;25.336;2023-03-23T12:47:33;97318.97;;;13.21;80.44
34297;BME280;20564;42.902;25.336;2023-03-23T12:50:26;97313.44;;;13.15;76.63
34297;BME280;20564;42.902;25.336;2023-03-23T12:53:35;97320.56;;;13.14;78.69
34297;BME280;20564;42.902;25.336;2023-03-23T12:56:18;97313.09;;;13.10;77.78
34297;BME280;20564;42.902;25.336;2023-03-23T12:58:53;97315.22;;;13.06;78.00
34297;BME280;20564;42.902;25.336;2023-03-23T13:05:03;97308.03;;;13.16;78.22
34297;BME280;20564;42.902;25.336;2023-03-23T13:08:13;97299.88;;;13.27;75.26
34297;BME280;20564;42.902;25.336;2023-03-23T13:10:48;97297.34;;;13.44;76.13
34297;BME280;20564;42.902;25.336;2023-03-23T13:13:19;97298.38;;;13.51;76.59
34297;BME280;20564;42.902;25.336;2023-03-23T13:16:16;97303.09;;;13.65;76.58
34297;BME280;20564;42.902;25.336;2023-03-23T13:25:06;97300.63;;;13.98;72.40
34297;BME280;20564;42.902;25.336;2023-03-23T13:28:02;97303.75;;;13.93;69.92
34297;BME280;20564;42.902;25.336;2023-03-23T13:31:14;97298.22;;;13.79;70.48
34297;BME280;20564;42.902;25.336;2023-03-23T13:33:57;97297.31;;;13.70;69.53
34297;BME280;20564;42.902;25.336;2023-03-23T13:36:36;97303.44;;;13.70;71.75
34297;BME280;20564;42.902;25.336;2023-03-23T13:39:05;97303.13;;;13.73;71.20
34297;BME280;20564;42.902;25.336;2023-03-23T13:41:47;97306.47;;;13.75;68.79
34297;BME280;20564;42.902;25.336;2023-03-23T13:44:23;97296.50;;;13.69;65.26
34297;BME280;20564;42.902;25.336;2023-03-23T13:47:05;97301.47;;;13.72;66.83
34297;BME280;20564;42.902;25.336;2023-03-23T13:52:53;97289.31;;;13.88;68.10
34297;BME280;20564;42.902;25.336;2023-03-23T13:56:02;97291.97;;;13.88;67.05
34297;BME280;20564;42.902;25.336;2023-03-23T13:58:50;97289.94;;;13.82;66.38
34297;BME280;20564;42.902;25.336;2023-03-23T14:01:54;97297.69;;;13.75;67.62
34297;BME280;20564;42.902;25.336;2023-03-23T14:04:31;97294.19;;;13.74;69.45
34297;BME280;20564;42.902;25.336;2023-03-23T14:07:10;97287.25;;;13.73;66.87
34297;BME280;20564;42.902;25.336;2023-03-23T14:09:42;97287.44;;;13.72;66.42
34297;BME280;20564;42.902;25.336;2023-03-23T14:15:16;97278.25;;;13.58;65.43
34297;BME280;20564;42.902;25.336;2023-03-23T14:18:04;97286.75;;;13.44;66.90
34297;BME280;20564;42.902;25.336;2023-03-23T14:20:33;97285.09;;;13.43;65.96
34297;BME280;20564;42.902;25.336;2023-03-23T14:23:12;97280.44;;;13.37;66.38
34297;BME280;20564;42.902;25.336;2023-03-23T14:26:02;97285.19;;;13.33;67.80
34297;BME280;20564;42.902;25.336;2023-03-23T14:28:54;97281.94;;;13.21;69.70
34297;BME280;20564;42.902;25.336;2023-03-23T14:31:34;97284.97;;;13.09;68.91
34297;BME280;20564;42.902;25.336;2023-03-23T14:34:03;97272.94;;;13.06;70.39
34297;BME280;20564;42.902;25.336;2023-03-23T14:36:35;97280.16;;;13.04;69.90
34297;BME280;20564;42.902;25.336;2023-03-23T14:39:23;97280.47;;;13.01;71.71
34297;BME280;20564;42.902;25.336;2023-03-23T14:45:59;97278.38;;;12.87;69.43
34297;BME280;20564;42.902;25.336;2023-03-23T14:49:16;97273.03;;;12.78;70.47
34297;BME280;20564;42.902;25.336;2023-03-23T14:51:55;97273.41;;;12.84;72.59
34297;BME280;20564;42.902;25.336;2023-03-23T14:57:43;97275.38;;;12.82;70.11
34297;BME280;20564;42.902;25.336;2023-03-23T15:00:52;97276.78;;;12.76;71.15
34297;BME280;20564;42.902;25.336;2023-03-23T15:04:05;97277.25;;;12.71;73.11
34297;BME280;20564;42.902;25.336;2023-03-23T15:10:26;97269.03;;;12.74;69.52
34297;BME280;20564;42.902;25.336;2023-03-23T15:13:01;97267.38;;;12.73;70.66
34297;BME280;20564;42.902;25.336;2023-03-23T15:15:36;97274.16;;;12.76;70.67
34297;BME280;20564;42.902;25.336;2023-03-23T15:18:03;97269.03;;;12.74;69.81
34297;BME280;20564;42.902;25.336;2023-03-23T15:20:47;97267.28;;;12.83;70.37
34297;BME280;20564;42.902;25.336;2023-03-23T15:23:16;97267.59;;;12.80;69.72
34297;BME280;20564;42.902;25.336;2023-03-23T15:25:54;97262.84;;;12.84;70.34
34297;BME280;20564;42.902;25.336;2023-03-23T15:28:38;97264.53;;;13.11;70.10
34297;BME280;20564;42.902;25.336;2023-03-23T15:31:06;97265.47;;;13.80;67.91
34297;BME280;20564;42.902;25.336;2023-03-23T15:33:36;97260.09;;;13.97;67.19
34297;BME280;20564;42.902;25.336;2023-03-23T15:36:17;97267.75;;;13.74;66.62
34297;BME280;20564;42.902;25.336;2023-03-23T15:38:45;97261.34;;;13.51;67.00
34297;BME280;20564;42.902;25.336;2023-03-23T15:41:32;97260.41;;;13.34;68.11
34297;BME280;20564;42.902;25.336;2023-03-23T15:44:27;97269.72;;;13.20;67.74
34297;BME280;20564;42.902;25.336;2023-03-23T15:47:03;97265.00;;;13.06;68.38
34297;BME280;20564;42.902;25.336;2023-03-23T15:49:46;97261.91;;;12.93;70.56
34297;BME280;20564;42.902;25.336;2023-03-23T15:56:41;97274.38;;;12.65;69.98